Welcome to the Virtual
Houston Air Route Traffic Control Center

Login

 
 

Forgot your password?

Controllers Online
Callsign Controller
Loading...
Updated --
Airport Information
ICAO Rules Wind Baro
Loading...
Updated --
Full Weather Information
Top Controllers - Mar '17
Controller Online
En-Route / Oceanic
1 Brandon Barrett (I1) 23:04
2 Cole Connelly (I1) 11:16
3 Jason Diket (SUP) 07:28
4 Ian Fisher (C1) 05:03
5 Matthew Kosmoski (C1) 04:00
Terminal RADAR
1 Sebastian Knoop-Troullier (S2) 34:57
2 Matthew Kosmoski (C1) 09:21
3 Clay Brock (S3) 05:55
4 Ian Fisher (C1) 05:43
5 Cole Connelly (I1) 05:04
C/G/L Control
1 Nick Manley (S1) 151912:11
2 Ryan Barnes (S1) 88:35
3 Evan Bradley (S1) 59:49
4 Jordan Robinson (S1) 16:12
5 Preston Nguyen (S2) 11:30
Full Controller Statistics
Flight Level Radio
VATSIM
VATUSA

Weather


KAUSKAUS 292353Z 28005G15KT 10SM FEW100 27/06 A2975 RMK AO2 SLP065 T02720056 10294 20261 53005
KBTRKBTR 292353Z 16013G18KT 10SM SCT041 SCT075 26/18 A2984 RMK AO2 SLP105 T02610178 10300 20261 58004
KCRPKCRP 292351Z 11009KT 10SM FEW080 28/12 A2974 RMK AO2 SLP068 T02780122 10311 20278 53002 $
KGPTKGPT 300023Z 14011KT 10SM SCT015 SCT025 BKN041 24/20 A2994 RMK AO2 T02390200
KHOUKHOU 292353Z 10004KT 10SM FEW030 SCT095 SCT250 25/22 A2973 RMK AO2 SLP072 60098 T02500217 10272 20211 53009
KIAHKIAH 292353Z 00000KT 10SM FEW020 FEW250 25/21 A2974 RMK AO2 SLP069 60042 T02500206 10261 20206 53007
KLCHKLCH 300027Z 19011KT 1/2SM +TSRA FG FEW011 OVC024 19/19 A2979 RMK AO2 LTG DSNT ALQDS P0044 T01940189
KMOBKMOB 292356Z 15008KT 10SM FEW019 SCT035 BKN250 23/18 A2997 RMK AO2 SLP146 T02280183 10278 20228 55000
KMSYKMSY 292353Z 14014KT 10SM FEW030 OVC270 24/19 A2989 RMK AO2 SLP124 T02440194 10283 20244 56006
KSATKSAT 292351Z 27010KT 10SM FEW060 FEW250 27/03 A2977 RMK AO2 SLP065 T02670033 10283 20250 53005